Time;durP1;ratioP1;P1;durP2;ratioP2;P2;SDS_P1;SDS_P2;PMS_P1;PMS_P2;Temp;Humidity;BMP_temperature;BMP_pressure;BME280_temperature;BME280_humidity;BME280_pressure;Samples;Min_cycle;Max_cycle;Signal;HPM_P1;HPM_P2
2020/12/23 00:00:14;;;;;;;1.30;0.95;;;9.40;99.90;;;;;;4991858;28;20026;-77
2020/12/23 00:02:41;;;;;;;4.05;0.90;;;9.50;99.90;;;;;;4990994;28;20031;-77
2020/12/23 00:05:10;;;;;;;3.00;1.08;;;9.40;99.90;;;;;;4991694;28;20061;-76
2020/12/23 00:07:36;;;;;;;1.20;1.10;;;9.40;99.90;;;;;;4991934;28;20394;-76
2020/12/23 00:10:04;;;;;;;1.27;0.98;;;9.30;99.90;;;;;;4990691;28;20054;-76
2020/12/23 00:12:30;;;;;;;1.08;0.77;;;9.20;99.90;;;;;;4990514;28;20030;-76
2020/12/23 00:14:55;;;;;;;3.00;1.17;;;9.20;99.90;;;;;;4991432;28;20049;-76
2020/12/23 00:17:21;;;;;;;0.95;0.70;;;9.30;99.90;;;;;;4991577;28;20054;-76
2020/12/23 00:19:47;;;;;;;0.98;0.88;;;9.30;99.90;;;;;;4990451;28;20072;-76
2020/12/23 00:22:16;;;;;;;0.65;0.65;;;9.30;99.90;;;;;;4990407;28;20030;-76
2020/12/23 00:24:43;;;;;;;0.98;0.90;;;9.30;99.90;;;;;;4990174;28;20109;-76
2020/12/23 00:27:09;;;;;;;0.60;0.60;;;9.30;99.90;;;;;;4974083;28;20031;-76
2020/12/23 00:29:35;;;;;;;2.00;0.82;;;9.40;99.90;;;;;;4991616;28;20110;-76
2020/12/23 00:32:01;;;;;;;2.90;1.00;;;9.40;99.90;;;;;;4991266;28;20019;-76
2020/12/23 00:34:27;;;;;;;3.08;0.90;;;9.30;99.90;;;;;;4991470;28;20023;-76
2020/12/23 00:36:58;;;;;;;1.80;0.70;;;9.20;99.90;;;;;;4990114;28;20022;-76
2020/12/23 00:39:24;;;;;;;1.40;1.30;;;9.10;99.90;;;;;;4991536;28;20032;-76
2020/12/23 00:41:50;;;;;;;1.40;0.85;;;9.00;99.90;;;;;;4991209;28;20402;-76
2020/12/23 00:44:16;;;;;;;0.90;0.90;;;9.00;99.90;;;;;;4991516;28;20098;-76
2020/12/23 00:46:42;;;;;;;1.23;0.90;;;9.10;99.90;;;;;;4991348;28;20029;-76
2020/12/23 00:49:08;;;;;;;1.42;1.10;;;9.00;99.90;;;;;;4991696;28;20029;-76
2020/12/23 00:51:34;;;;;;;0.93;0.85;;;9.00;99.90;;;;;;4991470;28;20030;-76
2020/12/23 00:54:00;;;;;;;2.15;0.98;;;9.10;99.90;;;;;;5011719;28;20285;-76
2020/12/23 00:56:26;;;;;;;0.80;0.80;;;9.10;99.90;;;;;;4975138;28;20026;-76
2020/12/23 00:58:52;;;;;;;1.63;0.70;;;9.20;99.90;;;;;;4990334;28;20265;-76
2020/12/23 01:01:18;;;;;;;1.08;0.90;;;9.20;99.90;;;;;;4991402;28;20027;-77
2020/12/23 01:03:44;;;;;;;0.85;0.70;;;9.20;99.90;;;;;;4991149;28;20026;-76
2020/12/23 01:06:11;;;;;;;1.02;0.80;;;9.20;99.90;;;;;;4991181;28;20053;-77
2020/12/23 01:08:37;;;;;;;1.17;1.00;;;9.10;99.90;;;;;;4991121;28;20026;-77
2020/12/23 01:11:07;;;;;;;1.85;0.88;;;9.10;99.90;;;;;;4991252;28;20026;-77
2020/12/23 01:13:34;;;;;;;1.42;0.88;;;9.10;99.90;;;;;;4990932;28;20023;-76
2020/12/23 01:16:00;;;;;;;0.95;0.80;;;9.20;99.90;;;;;;4989773;28;20474;-76
2020/12/23 01:18:27;;;;;;;1.35;0.85;;;9.20;99.90;;;;;;4990928;28;20022;-77
2020/12/23 01:20:53;;;;;;;0.88;0.77;;;9.30;99.90;;;;;;4991071;28;20084;-77
2020/12/23 01:23:19;;;;;;;0.90;0.90;;;9.20;99.90;;;;;;4989693;28;20018;-77
2020/12/23 01:25:44;;;;;;;0.80;0.80;;;9.20;99.90;;;;;;4991047;28;20049;-76
2020/12/23 01:28:10;;;;;;;2.33;0.93;;;9.10;99.90;;;;;;4990888;28;20034;-76
2020/12/23 01:30:36;;;;;;;0.98;0.88;;;9.10;99.90;;;;;;4989798;28;20470;-76
2020/12/23 01:33:03;;;;;;;0.70;0.70;;;9.00;99.90;;;;;;4973429;28;20031;-76
2020/12/23 01:35:29;;;;;;;0.70;0.70;;;9.10;99.90;;;;;;4990985;28;20586;-76
2020/12/23 01:37:54;;;;;;;2.95;0.80;;;9.10;99.90;;;;;;4991213;28;20026;-76
2020/12/23 01:40:20;;;;;;;0.82;0.80;;;9.10;99.90;;;;;;4990774;28;20066;-76
2020/12/23 01:42:46;;;;;;;3.70;0.77;;;9.00;99.90;;;;;;4991037;28;20037;-76
2020/12/23 01:45:12;;;;;;;0.93;0.88;;;9.00;99.90;;;;;;4990475;28;20034;-77
2020/12/23 01:47:43;;;;;;;0.75;0.70;;;8.90;99.90;;;;;;4989595;28;20034;-76
2020/12/23 01:50:08;;;;;;;1.00;0.75;;;8.90;99.90;;;;;;4990734;28;20019;-76
2020/12/23 01:52:34;;;;;;;0.85;0.60;;;8.90;99.90;;;;;;4992124;28;20057;-77
2020/12/23 01:55:01;;;;;;;1.05;0.70;;;9.00;99.90;;;;;;4994017;28;20097;-76
2020/12/23 01:57:27;;;;;;;0.80;0.80;;;9.00;99.90;;;;;;4994329;28;20109;-76
2020/12/23 01:59:53;;;;;;;2.38;0.75;;;8.90;99.90;;;;;;4992660;28;20453;-76
2020/12/23 02:02:36;;;;;;;0.60;0.60;;;8.90;99.90;;;;;;4976812;28;20602;-76
2020/12/23 02:05:04;;;;;;;1.40;0.95;;;8.90;99.90;;;;;;4993835;28;20022;-76
2020/12/23 02:07:30;;;;;;;2.90;0.80;;;8.80;99.90;;;;;;4992914;28;20086;-76
2020/12/23 02:10:00;;;;;;;0.65;0.65;;;8.80;99.90;;;;;;4993793;28;20045;-76
2020/12/23 02:12:27;;;;;;;0.77;0.63;;;8.80;99.90;;;;;;4992885;28;20030;-77
2020/12/23 02:14:58;;;;;;;0.57;0.57;;;8.80;99.90;;;;;;4993724;28;20031;-76
2020/12/23 02:17:27;;;;;;;0.65;0.60;;;8.80;99.90;;;;;;4992888;28;20033;-76
2020/12/23 02:19:53;;;;;;;1.27;0.70;;;8.80;99.90;;;;;;4976152;28;20065;-76
2020/12/23 02:22:21;;;;;;;0.77;0.70;;;8.80;99.90;;;;;;4993838;28;20525;-76
2020/12/23 02:24:51;;;;;;;1.20;0.90;;;8.80;99.90;;;;;;5008824;28;20371;-76
2020/12/23 02:27:21;;;;;;;1.00;0.68;;;8.90;99.90;;;;;;4992527;28;20113;-76
2020/12/23 02:29:49;;;;;;;0.50;0.50;;;8.90;99.90;;;;;;4992697;28;20026;-76
2020/12/23 02:32:16;;;;;;;0.73;0.73;;;8.90;99.90;;;;;;4994034;28;20494;-76
2020/12/23 02:34:42;;;;;;;0.50;0.50;;;9.00;99.90;;;;;;4994172;28;20072;-76
2020/12/23 02:37:09;;;;;;;0.50;0.43;;;9.10;99.90;;;;;;4993933;28;20038;-76
2020/12/23 02:39:43;;;;;;;1.00;0.60;;;9.20;99.90;;;;;;4993965;28;20030;-76
2020/12/23 02:42:09;;;;;;;0.52;0.50;;;9.30;99.90;;;;;;4992300;28;20049;-76
2020/12/23 02:44:35;;;;;;;0.80;0.40;;;9.30;99.90;;;;;;4992306;28;20548;-76
2020/12/23 02:47:08;;;;;;;0.65;0.65;;;9.30;99.90;;;;;;4993227;28;20022;-76
2020/12/23 02:49:34;;;;;;;0.73;0.40;;;9.30;99.90;;;;;;4992160;28;20027;-76
2020/12/23 02:52:00;;;;;;;0.85;0.40;;;9.30;99.90;;;;;;4991810;28;20120;-76
2020/12/23 02:54:26;;;;;;;0.45;0.32;;;9.30;99.90;;;;;;4993151;28;20026;-76
2020/12/23 02:56:52;;;;;;;0.50;0.50;;;9.40;99.90;;;;;;4991687;28;20494;-76
2020/12/23 02:59:18;;;;;;;0.50;0.50;;;9.40;99.90;;;;;;4993124;28;20487;-76
2020/12/23 03:01:45;;;;;;;0.50;0.50;;;9.30;99.90;;;;;;4991341;28;20133;-76
2020/12/23 03:04:11;;;;;;;0.50;0.50;;;9.30;99.90;;;;;;4992679;28;20038;-77
2020/12/23 03:06:37;;;;;;;0.60;0.60;;;9.20;99.90;;;;;;5008129;28;20032;-76
2020/12/23 03:09:05;;;;;;;0.93;0.60;;;9.10;99.90;;;;;;4992750;28;20084;-77
2020/12/23 03:11:31;;;;;;;0.50;0.50;;;9.10;99.90;;;;;;4992945;28;20383;-76
2020/12/23 03:13:57;;;;;;;0.30;0.30;;;9.10;99.90;;;;;;4992646;28;20019;-76
2020/12/23 03:16:23;;;;;;;0.40;0.40;;;9.10;99.90;;;;;;4992731;28;20034;-76
2020/12/23 03:18:49;;;;;;;0.55;0.55;;;9.20;99.90;;;;;;4992410;28;20097;-76
2020/12/23 03:21:14;;;;;;;0.68;0.40;;;9.30;99.90;;;;;;4992739;28;20129;-76
2020/12/23 03:23:40;;;;;;;0.35;0.35;;;9.40;99.90;;;;;;4992485;28;20030;-76
2020/12/23 03:26:06;;;;;;;0.40;0.40;;;9.50;99.90;;;;;;4992581;28;20022;-76
2020/12/23 03:28:33;;;;;;;0.68;0.60;;;9.50;99.90;;;;;;4991151;28;20093;-76
2020/12/23 03:30:59;;;;;;;0.50;0.50;;;9.60;99.90;;;;;;4991393;28;20034;-77
2020/12/23 03:33:26;;;;;;;1.88;0.40;;;9.60;99.90;;;;;;4992290;28;20014;-76
2020/12/23 03:35:52;;;;;;;0.40;0.40;;;9.60;99.90;;;;;;4992311;28;20022;-76
2020/12/23 03:38:17;;;;;;;0.57;0.57;;;9.60;99.90;;;;;;4991214;28;20038;-76
2020/12/23 03:40:43;;;;;;;0.40;0.40;;;9.60;99.90;;;;;;5007881;28;20026;-76
2020/12/23 03:43:09;;;;;;;1.05;0.50;;;9.60;99.90;;;;;;4992416;28;20049;-77
2020/12/23 03:45:35;;;;;;;0.82;0.60;;;9.50;99.90;;;;;;4990857;28;20487;-76
2020/12/23 03:48:01;;;;;;;0.60;0.60;;;9.30;99.90;;;;;;4992142;28;20053;-77
2020/12/23 03:50:26;;;;;;;2.38;0.55;;;9.30;99.90;;;;;;4992085;28;20060;-77
2020/12/23 03:52:52;;;;;;;0.60;0.60;;;9.20;99.90;;;;;;4991036;28;20394;-77
2020/12/23 03:55:18;;;;;;;3.53;0.60;;;9.20;99.90;;;;;;4991749;28;20098;-76
2020/12/23 03:57:44;;;;;;;0.68;0.60;;;9.10;99.90;;;;;;5007206;28;20122;-76
2020/12/23 04:00:11;;;;;;;0.55;0.55;;;9.00;99.90;;;;;;4990270;28;20032;-76
2020/12/23 04:02:37;;;;;;;0.40;0.40;;;9.00;99.90;;;;;;4974785;28;20022;-76
2020/12/23 04:05:04;;;;;;;0.60;0.60;;;9.00;99.90;;;;;;4990454;28;20524;-77
2020/12/23 04:07:29;;;;;;;0.30;0.30;;;9.00;99.90;;;;;;5007125;28;20124;-77
2020/12/23 04:09:55;;;;;;;0.50;0.50;;;9.10;99.90;;;;;;4991686;28;20050;-76
2020/12/23 04:12:21;;;;;;;0.45;0.40;;;9.20;99.90;;;;;;4992079;28;20022;-76
2020/12/23 04:14:47;;;;;;;3.33;0.65;;;9.30;99.90;;;;;;4991121;28;20076;-76
2020/12/23 04:17:13;;;;;;;0.93;0.65;;;9.30;99.90;;;;;;4991941;28;20030;-76
2020/12/23 04:19:39;;;;;;;1.15;0.70;;;9.50;99.90;;;;;;4991935;28;20036;-76
2020/12/23 04:22:04;;;;;;;0.70;0.70;;;9.50;99.90;;;;;;4990987;28;20038;-76
2020/12/23 04:24:30;;;;;;;0.80;0.60;;;9.60;99.90;;;;;;4991068;28;20038;-76
2020/12/23 04:26:56;;;;;;;0.70;0.70;;;9.60;99.90;;;;;;5007059;28;20125;-76
2020/12/23 04:29:22;;;;;;;0.70;0.57;;;9.50;99.90;;;;;;4991920;28;20025;-75
2020/12/23 04:31:48;;;;;;;1.40;0.55;;;9.50;99.90;;;;;;4991441;28;20030;-76
2020/12/23 04:34:14;;;;;;;1.20;0.50;;;9.40;99.90;;;;;;4990617;28;20052;-76
2020/12/23 04:36:40;;;;;;;0.50;0.50;;;9.40;99.90;;;;;;4990126;28;20034;-76
2020/12/23 04:39:06;;;;;;;0.47;0.47;;;9.50;99.90;;;;;;4990210;28;20033;-76
2020/12/23 04:41:35;;;;;;;0.50;0.50;;;9.40;99.90;;;;;;4991501;28;20031;-77
2020/12/23 04:44:03;;;;;;;0.95;0.55;;;9.40;99.90;;;;;;4991435;28;20105;-76
2020/12/23 04:46:33;;;;;;;0.52;0.45;;;9.50;99.90;;;;;;4991071;28;20034;-77
2020/12/23 04:49:00;;;;;;;1.40;0.60;;;9.50;99.90;;;;;;4991571;28;20018;-77
2020/12/23 04:51:32;;;;;;;0.50;0.50;;;9.50;99.90;;;;;;4989899;28;20088;-76
2020/12/23 04:53:59;;;;;;;3.00;0.65;;;9.40;99.90;;;;;;4991489;28;20077;-76
2020/12/23 04:56:30;;;;;;;0.60;0.60;;;9.20;99.90;;;;;;5006153;28;20026;-76
2020/12/23 04:58:56;;;;;;;1.63;0.50;;;9.10;99.90;;;;;;4990105;28;20023;-77
2020/12/23 05:01:22;;;;;;;0.60;0.50;;;9.00;99.90;;;;;;4990790;28;20363;-77
2020/12/23 05:03:48;;;;;;;0.50;0.50;;;8.90;99.90;;;;;;4991277;28;20031;-76
2020/12/23 05:06:15;;;;;;;2.47;0.57;;;9.00;99.90;;;;;;4991159;28;20038;-76
2020/12/23 05:08:41;;;;;;;0.77;0.55;;;9.00;99.90;;;;;;4989824;28;20109;-76
2020/12/23 05:11:08;;;;;;;0.55;0.52;;;9.10;99.90;;;;;;4990229;28;20122;-76
2020/12/23 05:13:35;;;;;;;0.80;0.70;;;9.10;99.90;;;;;;4991030;28;20026;-76
2020/12/23 05:16:06;;;;;;;2.25;0.30;;;9.10;99.90;;;;;;4991143;28;20015;-76
2020/12/23 05:18:33;;;;;;;1.33;0.60;;;9.00;99.90;;;;;;4989865;28;20033;-76
2020/12/23 05:20:59;;;;;;;0.40;0.40;;;9.00;99.90;;;;;;4991168;28;20027;-76
2020/12/23 05:23:28;;;;;;;1.75;0.73;;;9.00;99.90;;;;;;4989689;28;20378;-76
2020/12/23 05:26:03;;;;;;;0.90;0.70;;;8.90;99.90;;;;;;4991326;28;20109;-77
2020/12/23 05:28:29;;;;;;;4.18;0.85;;;8.90;99.90;;;;;;4994632;28;20490;-76
2020/12/23 05:30:56;;;;;;;1.27;1.00;;;8.70;99.90;;;;;;4994796;28;20018;-76
2020/12/23 05:33:21;;;;;;;3.80;1.00;;;8.70;99.90;;;;;;4994767;28;20045;-76
2020/12/23 05:35:47;;;;;;;1.10;1.00;;;8.70;99.90;;;;;;4994681;28;20097;-76
2020/12/23 05:38:18;;;;;;;0.43;0.43;;;8.80;99.90;;;;;;4993472;28;20109;-76
2020/12/23 05:40:44;;;;;;;1.10;0.88;;;8.90;99.90;;;;;;4994694;28;20083;-76
2020/12/23 05:43:09;;;;;;;1.45;0.70;;;9.00;99.90;;;;;;4994669;28;20101;-76
2020/12/23 05:45:35;;;;;;;0.47;0.47;;;9.00;99.90;;;;;;4994548;28;20036;-77
2020/12/23 05:48:01;;;;;;;0.70;0.70;;;9.00;99.90;;;;;;4994577;28;20030;-76
2020/12/23 05:50:27;;;;;;;4.00;0.70;;;9.10;99.90;;;;;;4994370;28;20287;-76
2020/12/23 05:52:53;;;;;;;3.38;0.52;;;9.10;99.90;;;;;;5009697;28;20095;-77
2020/12/23 05:55:19;;;;;;;0.75;0.70;;;9.20;99.90;;;;;;4993051;28;20410;-77
2020/12/23 05:57:45;;;;;;;0.73;0.73;;;9.20;99.90;;;;;;4994636;28;20022;-76
2020/12/23 06:00:11;;;;;;;0.70;0.60;;;9.20;99.90;;;;;;4993031;28;20038;-76
2020/12/23 06:02:50;;;;;;;3.28;0.82;;;9.20;99.90;;;;;;4995016;28;20080;-76
2020/12/23 06:05:19;;;;;;;2.28;0.70;;;9.10;99.90;;;;;;5009713;28;20022;-76
2020/12/23 06:07:49;;;;;;;0.82;0.63;;;9.00;99.90;;;;;;4994451;28;20057;-76
2020/12/23 06:10:20;;;;;;;0.57;0.50;;;8.90;99.90;;;;;;4992830;28;20066;-76
2020/12/23 06:12:47;;;;;;;1.33;0.60;;;8.90;99.90;;;;;;4976789;28;20121;-76
2020/12/23 06:15:17;;;;;;;1.23;0.77;;;8.80;99.90;;;;;;4993581;28;20501;-76
2020/12/23 06:17:46;;;;;;;2.85;0.50;;;8.80;99.90;;;;;;4992959;28;20100;-76
2020/12/23 06:20:14;;;;;;;2.38;0.90;;;8.70;99.90;;;;;;4992361;28;20498;-76
2020/12/23 06:22:41;;;;;;;1.75;1.10;;;8.60;99.90;;;;;;4993947;28;20030;-76
2020/12/23 06:25:07;;;;;;;0.95;0.50;;;8.70;99.90;;;;;;4992381;28;20038;-76
2020/12/23 06:27:33;;;;;;;1.10;0.63;;;8.80;99.90;;;;;;5009098;28;20031;-76
2020/12/23 06:29:59;;;;;;;1.15;0.80;;;8.90;99.90;;;;;;4993764;28;20019;-76
2020/12/23 06:32:25;;;;;;;0.60;0.60;;;9.00;99.90;;;;;;5008720;28;20026;-77
2020/12/23 06:34:58;;;;;;;0.60;0.60;;;9.00;99.90;;;;;;4993463;28;20019;-77
2020/12/23 06:37:27;;;;;;;0.90;0.80;;;9.10;99.90;;;;;;4993165;28;20101;-76
2020/12/23 06:39:53;;;;;;;1.65;0.57;;;9.10;99.90;;;;;;4991837;28;20498;-77
2020/12/23 06:42:19;;;;;;;0.68;0.68;;;9.20;99.90;;;;;;4992001;28;20054;-77
2020/12/23 06:44:45;;;;;;;0.60;0.60;;;9.20;99.90;;;;;;4993395;28;20407;-77
2020/12/23 06:47:21;;;;;;;0.80;0.63;;;9.20;99.90;;;;;;4993156;28;20034;-76
2020/12/23 06:49:56;;;;;;;0.90;0.70;;;9.10;99.90;;;;;;4993437;28;20042;-77
2020/12/23 06:52:21;;;;;;;4.32;0.77;;;9.10;99.90;;;;;;4991913;28;20023;-77
2020/12/23 06:55:00;;;;;;;0.60;0.60;;;9.00;99.90;;;;;;4991968;28;20029;-77
2020/12/23 06:57:38;;;;;;;0.85;0.70;;;9.00;99.90;;;;;;4992978;28;20023;-76
2020/12/23 07:00:19;;;;;;;2.80;0.73;;;8.90;99.90;;;;;;4975332;28;20030;-77
2020/12/23 07:03:07;;;;;;;1.58;1.00;;;8.90;99.90;;;;;;4993007;28;20077;-77
2020/12/23 07:05:43;;;;;;;4.57;1.08;;;9.00;99.90;;;;;;5008167;28;20026;-76
2020/12/23 07:08:14;;;;;;;1.77;1.52;;;8.90;99.90;;;;;;4992711;28;20092;-77
2020/12/23 07:10:48;;;;;;;0.98;0.88;;;8.80;99.90;;;;;;4993110;28;20033;-76
2020/12/23 07:13:16;;;;;;;1.58;1.00;;;8.80;99.90;;;;;;4992751;28;20153;-76
2020/12/23 07:15:50;;;;;;;4.57;1.30;;;8.60;99.90;;;;;;4992746;28;20294;-76
2020/12/23 07:18:21;;;;;;;4.35;1.10;;;8.60;99.90;;;;;;4992626;28;20382;-76
2020/12/23 07:20:58;;;;;;;2.33;0.90;;;8.60;99.90;;;;;;4992850;28;20085;-77
2020/12/23 07:23:26;;;;;;;1.05;0.82;;;8.70;99.90;;;;;;4992580;28;20050;-77
2020/12/23 07:25:53;;;;;;;4.90;0.98;;;8.70;99.90;;;;;;4991388;28;20394;-76
2020/12/23 07:28:22;;;;;;;4.57;1.27;;;8.70;99.90;;;;;;4992294;28;20033;-77
2020/12/23 07:30:47;;;;;;;1.95;1.50;;;8.90;99.90;;;;;;4992525;28;20026;-76
2020/12/23 07:33:18;;;;;;;2.63;1.10;;;8.80;99.90;;;;;;4991665;28;20038;-76
2020/12/23 07:36:03;;;;;;;0.93;0.90;;;8.90;99.90;;;;;;5004876;28;20060;-76
2020/12/23 07:38:32;;;;;;;3.45;1.30;;;8.90;99.90;;;;;;4987447;28;20047;-76
2020/12/23 07:40:59;;;;;;;1.70;1.15;;;8.80;99.90;;;;;;4992989;28;20057;-76
2020/12/23 07:43:25;;;;;;;3.60;1.15;;;8.90;99.90;;;;;;4993797;28;20055;-76
2020/12/23 07:45:51;;;;;;;1.73;1.23;;;9.00;99.90;;;;;;4994227;28;20018;-76
2020/12/23 07:48:19;;;;;;;1.20;1.10;;;9.00;99.90;;;;;;4992567;28;20049;-75
2020/12/23 07:50:48;;;;;;;0.95;0.95;;;9.10;99.90;;;;;;4992030;28;20030;-77
2020/12/23 07:53:19;;;;;;;1.42;1.15;;;9.10;99.90;;;;;;4994776;28;20018;-75
2020/12/23 07:56:01;;;;;;;6.95;1.40;;;9.00;99.90;;;;;;4992135;28;20426;-76
2020/12/23 07:58:28;;;;;;;1.63;1.02;;;9.10;99.90;;;;;;4991000;28;20398;-75
2020/12/23 08:00:54;;;;;;;2.00;1.50;;;9.00;99.90;;;;;;4990689;28;20486;-75
2020/12/23 08:03:27;;;;;;;5.10;1.20;;;9.00;99.90;;;;;;4992702;28;20034;-75
2020/12/23 08:06:10;;;;;;;2.25;1.45;;;8.90;99.90;;;;;;4992684;28;20033;-76
2020/12/23 08:08:37;;;;;;;4.75;2.15;;;9.00;99.90;;;;;;4992351;28;20030;-75
2020/12/23 08:11:11;;;;;;;3.10;1.60;;;9.00;99.90;;;;;;4974426;28;20026;-75
2020/12/23 08:13:37;;;;;;;5.10;2.08;;;9.00;99.90;;;;;;4992063;28;20088;-74
2020/12/23 08:16:05;;;;;;;10.50;4.05;;;9.10;99.90;;;;;;4991645;28;20037;-74
2020/12/23 08:18:31;;;;;;;9.25;3.75;;;9.30;99.90;;;;;;4991804;28;20092;-75
2020/12/23 08:20:56;;;;;;;10.07;2.50;;;9.30;99.90;;;;;;4990339;28;20233;-75
2020/12/23 08:23:23;;;;;;;1.83;1.35;;;9.30;99.90;;;;;;4991841;28;20033;-75
2020/12/23 08:25:49;;;;;;;2.67;1.15;;;9.30;99.90;;;;;;4990085;28;20026;-75
2020/12/23 08:28:16;;;;;;;1.90;1.20;;;9.40;99.90;;;;;;4991624;28;20088;-75
2020/12/23 08:30:42;;;;;;;5.72;1.45;;;9.40;99.90;;;;;;4991844;28;20422;-75
2020/12/23 08:33:16;;;;;;;2.47;1.52;;;9.50;99.90;;;;;;4975881;28;20483;-75
2020/12/23 08:35:44;;;;;;;2.45;1.38;;;9.50;99.90;;;;;;4991472;28;20026;-75
2020/12/23 08:38:25;;;;;;;4.97;2.08;;;9.60;99.90;;;;;;4991263;28;20026;-75
2020/12/23 08:40:53;;;;;;;2.20;1.60;;;9.60;99.90;;;;;;4990411;28;20506;-76
2020/12/23 08:43:23;;;;;;;2.67;1.40;;;9.60;99.90;;;;;;5005696;28;20109;-75
2020/12/23 08:45:50;;;;;;;5.25;2.88;;;9.60;99.90;;;;;;5009912;28;20026;-75
2020/12/23 08:48:20;;;;;;;5.13;2.15;;;9.50;99.90;;;;;;5009512;28;20033;-75
2020/12/23 08:51:00;;;;;;;4.50;1.70;;;9.40;99.90;;;;;;5003660;28;20029;-74
2020/12/23 08:53:37;;;;;;;7.45;2.97;;;9.40;99.90;;;;;;4991200;28;20050;-75
2020/12/23 08:56:28;;;;;;;31.15;11.93;;;9.40;99.90;;;;;;4991199;28;20030;-75
2020/12/23 08:59:02;;;;;;;2.83;1.65;;;9.70;99.90;;;;;;4973723;28;20031;-74
2020/12/23 09:01:32;;;;;;;2.47;1.83;;;9.60;99.90;;;;;;4993662;28;20026;-75
2020/12/23 09:04:07;;;;;;;2.65;1.60;;;9.60;99.90;;;;;;4996059;28;20509;-75
2020/12/23 09:06:41;;;;;;;2.38;1.42;;;9.60;99.90;;;;;;4994942;28;20034;-75
2020/12/23 09:09:06;;;;;;;2.03;1.50;;;9.70;99.90;;;;;;4995772;28;20022;-75
2020/12/23 09:11:49;;;;;;;3.25;1.63;;;9.80;99.90;;;;;;4995456;28;20479;-74
2020/12/23 09:14:20;;;;;;;2.78;1.30;;;9.90;99.90;;;;;;4995156;28;20060;-75
2020/12/23 09:16:55;;;;;;;2.78;2.30;;;9.90;99.90;;;;;;4995460;28;20532;-75
2020/12/23 09:19:44;;;;;;;4.10;2.70;;;9.80;99.90;;;;;;5009810;28;20026;-75
2020/12/23 09:22:12;;;;;;;2.47;1.77;;;9.80;99.90;;;;;;5042301;23;20072;-74
2020/12/23 09:24:38;;;;;;;4.70;1.50;;;9.90;99.90;;;;;;5073870;28;20039;-74
2020/12/23 09:27:23;;;;;;;2.15;1.10;;;10.00;99.90;;;;;;5074134;28;20032;-74
2020/12/23 09:29:50;;;;;;;2.13;0.80;;;10.10;99.00;;;;;;5073946;28;20103;-74
2020/12/23 09:32:15;;;;;;;1.75;1.30;;;10.20;95.10;;;;;;5074215;28;20268;-74
2020/12/23 09:34:41;;;;;;;2.42;1.20;;;10.30;93.90;;;;;;5073746;28;20032;-74
2020/12/23 09:37:07;;;;;;;2.10;1.42;;;10.30;93.50;;;;;;5071540;28;20547;-73
2020/12/23 09:39:37;;;;;;;2.10;1.20;;;10.30;93.40;;;;;;5073839;28;20027;-71
2020/12/23 09:42:05;;;;;;;1.73;1.52;;;10.40;93.40;;;;;;5074742;28;20059;-74
2020/12/23 09:44:34;;;;;;;0.98;0.88;;;10.30;93.40;;;;;;5074221;28;20028;-74
2020/12/23 09:47:00;;;;;;;2.85;2.15;;;10.20;93.90;;;;;;5073421;28;20032;-74
2020/12/23 09:49:26;;;;;;;7.93;3.97;;;10.20;94.30;;;;;;5073730;28;20476;-73
2020/12/23 09:51:52;;;;;;;4.13;2.60;;;10.20;94.00;;;;;;5072291;28;20431;-73
2020/12/23 09:54:19;;;;;;;2.55;1.55;;;10.20;93.70;;;;;;5073596;28;20044;-73
2020/12/23 09:56:52;;;;;;;2.13;1.42;;;10.30;93.00;;;;;;5073473;28;20028;-73
2020/12/23 09:59:19;;;;;;;2.90;1.77;;;10.40;92.60;;;;;;5072419;28;20403;-74
2020/12/23 10:01:45;;;;;;;3.83;1.30;;;10.50;92.70;;;;;;5073695;28;20032;-74
2020/12/23 10:04:11;;;;;;;1.63;1.33;;;10.60;92.00;;;;;;5074132;28;20385;-73
2020/12/23 10:06:37;;;;;;;3.95;1.73;;;10.60;91.90;;;;;;5073134;28;20443;-74
2020/12/23 10:09:05;;;;;;;3.10;1.70;;;10.60;91.70;;;;;;5057807;28;20060;-74
2020/12/23 10:11:30;;;;;;;1.45;1.20;;;10.70;91.40;;;;;;5044241;28;20104;-74
2020/12/23 10:13:57;;;;;;;1.77;1.38;;;10.80;90.80;;;;;;5052069;28;20662;-73
2020/12/23 10:16:30;;;;;;;1.35;1.20;;;10.90;90.50;;;;;;5052690;28;20116;-74
2020/12/23 10:18:56;;;;;;;1.80;1.25;;;11.00;89.40;;;;;;5031849;28;20037;-74
2020/12/23 10:21:22;;;;;;;1.40;1.08;;;11.10;89.90;;;;;;5033064;28;20025;-74
2020/12/23 10:23:47;;;;;;;1.30;1.10;;;11.20;88.60;;;;;;5032661;28;20036;-74
2020/12/23 10:26:14;;;;;;;2.75;1.70;;;11.10;88.10;;;;;;5043884;28;20029;-74
2020/12/23 10:28:40;;;;;;;1.30;1.10;;;11.20;89.30;;;;;;5052978;28;20024;-74
2020/12/23 10:31:07;;;;;;;1.45;1.02;;;11.60;88.60;;;;;;5065684;28;20024;-74
2020/12/23 10:33:36;;;;;;;2.00;0.95;;;12.10;87.80;;;;;;5071429;28;20498;-74
2020/12/23 10:36:03;;;;;;;0.80;0.80;;;12.20;88.00;;;;;;5072661;28;20388;-74
2020/12/23 10:38:29;;;;;;;1.70;1.08;;;12.20;86.40;;;;;;5072765;28;20032;-74
2020/12/23 10:40:56;;;;;;;0.93;0.57;;;12.20;86.30;;;;;;5071421;28;20392;-74
2020/12/23 10:43:22;;;;;;;3.47;1.10;;;12.10;85.70;;;;;;5060299;28;20396;-74
2020/12/23 10:45:49;;;;;;;1.23;0.77;;;12.00;85.00;;;;;;5052631;28;20035;-74
2020/12/23 10:48:15;;;;;;;0.85;0.77;;;12.00;84.30;;;;;;5052518;28;20028;-73
2020/12/23 10:50:41;;;;;;;1.30;0.70;;;12.00;83.40;;;;;;5052318;28;20021;-74
2020/12/23 10:53:07;;;;;;;0.77;0.75;;;12.00;83.10;;;;;;5052458;28;20020;-74
2020/12/23 10:55:33;;;;;;;1.05;0.80;;;12.00;83.50;;;;;;5052138;28;20498;-74
2020/12/23 10:57:58;;;;;;;1.65;0.98;;;12.00;83.30;;;;;;5052548;28;20032;-74
2020/12/23 11:00:25;;;;;;;0.85;0.85;;;12.00;84.00;;;;;;5052482;28;20025;-74
2020/12/23 11:02:50;;;;;;;0.85;0.75;;;12.00;83.90;;;;;;5052350;28;20025;-74
2020/12/23 11:05:16;;;;;;;1.05;0.80;;;11.90;84.00;;;;;;5051934;28;20392;-74
2020/12/23 11:07:42;;;;;;;1.08;0.85;;;11.90;84.30;;;;;;5052225;28;20029;-74
2020/12/23 11:10:09;;;;;;;1.23;0.82;;;12.00;84.50;;;;;;5050711;28;20041;-74
2020/12/23 11:12:35;;;;;;;0.60;0.60;;;12.00;83.50;;;;;;5050834;28;20059;-73
2020/12/23 11:15:00;;;;;;;4.13;0.80;;;12.00;83.40;;;;;;5051845;28;20048;-73
2020/12/23 11:17:26;;;;;;;1.58;0.77;;;12.10;83.70;;;;;;5040630;28;20101;-73
2020/12/23 11:19:54;;;;;;;1.20;1.00;;;12.00;84.10;;;;;;5031939;28;20030;-74
2020/12/23 11:22:20;;;;;;;0.68;0.68;;;12.00;85.70;;;;;;5032396;28;20451;-74
2020/12/23 11:24:47;;;;;;;3.65;1.00;;;12.00;86.80;;;;;;5031947;28;20156;-74
2020/12/23 11:27:14;;;;;;;1.48;1.10;;;12.00;87.30;;;;;;5032553;28;20068;-74
2020/12/23 11:29:40;;;;;;;3.38;1.90;;;12.00;88.30;;;;;;5031277;28;20022;-73
2020/12/23 11:32:06;;;;;;;2.90;1.48;;;12.00;88.90;;;;;;5032068;28;20477;-76
2020/12/23 11:34:32;;;;;;;2.45;1.13;;;12.00;89.30;;;;;;5030753;28;20047;-73
2020/12/23 11:37:00;;;;;;;2.45;1.02;;;12.00;88.70;;;;;;5031671;28;20108;-74
2020/12/23 11:39:26;;;;;;;3.30;2.15;;;12.10;89.20;;;;;;5031804;28;20029;-74
2020/12/23 11:42:00;;;;;;;3.47;1.77;;;12.10;88.70;;;;;;5031701;28;20449;-74
2020/12/23 11:44:27;;;;;;;3.58;2.30;;;12.20;89.10;;;;;;5031695;28;20477;-74
2020/12/23 11:46:53;;;;;;;4.78;2.03;;;12.30;89.10;;;;;;5060679;28;20052;-74
2020/12/23 11:49:19;;;;;;;5.30;2.30;;;12.20;88.90;;;;;;5070049;28;20024;-74
2020/12/23 11:51:51;;;;;;;3.70;2.35;;;12.30;87.90;;;;;;5069871;28;20039;-74
2020/12/23 11:54:18;;;;;;;4.57;2.50;;;12.40;88.30;;;;;;5071254;28;20395;-74
2020/12/23 11:56:46;;;;;;;4.95;2.67;;;12.50;88.00;;;;;;5047642;28;20109;-74
2020/12/23 11:59:13;;;;;;;4.93;2.78;;;12.60;85.90;;;;;;5051363;28;20384;-73
2020/12/23 12:01:39;;;;;;;2.88;1.60;;;12.60;86.60;;;;;;5050958;28;20075;-74
2020/12/23 12:04:05;;;;;;;3.53;2.15;;;12.70;87.70;;;;;;5050968;28;20044;-74
2020/12/23 12:06:31;;;;;;;3.83;2.78;;;12.60;87.70;;;;;;5049824;28;20388;-74
2020/12/23 12:08:57;;;;;;;3.08;2.00;;;12.60;85.80;;;;;;5051159;28;20017;-73
2020/12/23 12:11:23;;;;;;;3.33;1.90;;;12.50;83.10;;;;;;5051162;28;20082;-74
2020/12/23 12:13:48;;;;;;;4.22;2.22;;;12.50;83.00;;;;;;5049931;28;20076;-74
2020/12/23 12:16:18;;;;;;;2.03;1.60;;;12.40;82.40;;;;;;5050626;28;20025;-74
2020/12/23 12:18:44;;;;;;;3.33;2.25;;;12.50;81.60;;;;;;5050681;28;20013;-74
2020/12/23 12:21:12;;;;;;;2.03;1.40;;;12.60;80.40;;;;;;5050799;28;20021;-74
2020/12/23 12:23:38;;;;;;;2.33;1.60;;;12.60;80.80;;;;;;5050509;28;20028;-74
2020/12/23 12:26:04;;;;;;;3.20;1.42;;;12.60;82.00;;;;;;5049558;28;20017;-74
2020/12/23 12:28:29;;;;;;;3.22;2.25;;;12.60;81.30;;;;;;5050841;28;20060;-73
2020/12/23 12:30:55;;;;;;;2.45;1.65;;;12.60;80.80;;;;;;5050615;28;20575;-74
2020/12/23 12:33:21;;;;;;;3.72;1.67;;;12.60;82.10;;;;;;5049741;28;20029;-74
2020/12/23 12:35:47;;;;;;;2.20;1.42;;;12.60;81.00;;;;;;5049809;28;20053;-74
2020/12/23 12:38:13;;;;;;;1.33;0.98;;;12.60;81.20;;;;;;5050975;28;20099;-74
2020/12/23 12:40:38;;;;;;;1.00;0.90;;;12.60;81.40;;;;;;5050743;28;20025;-74
2020/12/23 12:43:05;;;;;;;1.90;1.17;;;12.60;82.20;;;;;;5050556;28;20558;-74
2020/12/23 12:45:34;;;;;;;4.55;1.52;;;12.60;82.80;;;;;;5050186;28;20061;-74
2020/12/23 12:47:59;;;;;;;1.45;1.08;;;12.60;83.30;;;;;;5050501;28;20112;-74
2020/12/23 12:50:25;;;;;;;3.78;2.25;;;12.60;84.00;;;;;;5050253;28;20413;-74
2020/12/23 12:52:51;;;;;;;2.88;1.70;;;12.60;84.40;;;;;;5049512;28;20035;-74
2020/12/23 12:55:17;;;;;;;1.88;1.67;;;12.60;85.70;;;;;;5050220;28;20017;-74